Time;durP1;ratioP1;P1;durP2;ratioP2;P2;SDS_P1;SDS_P2;PMS_P1;PMS_P2;Temp;Humidity;BMP_temperature;BMP_pressure;BME280_temperature;BME280_humidity;BME280_pressure;Samples;Min_cycle;Max_cycle;Signal;HPM_P1;HPM_P2
2021/12/12 00:00:03;;;;;;;22.45;16.42;;;;;;;1.20;73.91;101478.59;5092254;28;20472;-52
2021/12/12 00:02:49;;;;;;;23.63;16.20;;;;;;;1.18;73.89;101475.94;5091093;28;20031;-50
2021/12/12 00:05:18;;;;;;;23.60;16.98;;;;;;;1.18;73.95;101486.34;5090629;28;20046;-49
2021/12/12 00:07:44;;;;;;;20.58;16.00;;;;;;;1.18;73.61;101485.44;5071434;28;20059;-48
2021/12/12 00:10:14;;;;;;;22.45;17.63;;;;;;;1.19;73.95;101497.59;5089931;28;20511;-49
2021/12/12 00:12:44;;;;;;;22.52;15.65;;;;;;;1.19;73.71;101497.59;5090707;28;20024;-50
2021/12/12 00:15:12;;;;;;;22.55;16.75;;;;;;;1.17;73.98;101492.38;5089998;28;20069;-50
2021/12/12 00:17:38;;;;;;;20.58;16.25;;;;;;;1.17;73.66;101501.84;5088835;28;20039;-48
2021/12/12 00:20:05;;;;;;;19.58;15.32;;;;;;;1.18;73.57;101511.41;5090540;28;20023;-48
2021/12/12 00:22:32;;;;;;;22.05;16.40;;;;;;;1.17;73.79;101515.75;5071702;28;20543;-49
2021/12/12 00:24:57;;;;;;;24.45;16.50;;;;;;;1.18;73.81;101527.00;5072282;28;20103;-50
2021/12/12 00:27:23;;;;;;;23.85;17.48;;;;;;;1.16;73.60;101526.94;5090875;28;20232;-48
2021/12/12 00:29:49;;;;;;;22.85;15.85;;;;;;;1.16;73.67;101524.34;5090698;28;20407;-49
2021/12/12 00:32:15;;;;;;;23.15;16.88;;;;;;;1.17;73.74;101522.66;5089888;28;20384;-48
2021/12/12 00:34:48;;;;;;;20.40;15.50;;;;;;;1.17;73.96;101514.84;5089078;28;20024;-51
2021/12/12 00:37:13;;;;;;;23.38;17.17;;;;;;;1.17;73.63;101512.25;5090512;28;20160;-50
2021/12/12 00:39:40;;;;;;;23.25;16.20;;;;;;;1.17;73.76;101517.44;5089666;28;20130;-50
2021/12/12 00:42:10;;;;;;;21.67;15.65;;;;;;;1.16;74.08;101521.75;5089962;28;20043;-50
2021/12/12 00:44:38;;;;;;;21.75;16.30;;;;;;;1.14;73.87;101526.88;5089525;28;20028;-50
2021/12/12 00:47:07;;;;;;;19.85;15.60;;;;;;;1.14;73.67;101537.28;5090760;28;20019;-50
2021/12/12 00:49:32;;;;;;;19.27;14.98;;;;;;;1.14;73.47;101537.28;5089619;28;20158;-50
2021/12/12 00:51:58;;;;;;;22.52;16.95;;;;;;;1.14;73.84;101545.06;5089769;28;20576;-50
2021/12/12 00:54:30;;;;;;;22.52;15.60;;;;;;;1.14;73.78;101539.88;5053456;28;20024;-48
2021/12/12 00:56:58;;;;;;;23.90;16.98;;;;;;;1.14;73.95;101547.66;5089482;28;20086;-48
2021/12/12 00:59:23;;;;;;;21.33;15.75;;;;;;;1.12;73.90;101557.13;5090565;28;20023;-49
2021/12/12 01:01:50;;;;;;;20.08;15.80;;;;;;;1.14;73.82;101558.06;5090610;28;20016;-50
2021/12/12 01:04:20;;;;;;;21.23;15.93;;;;;;;1.14;73.76;101547.66;5089939;28;20031;-50
2021/12/12 01:06:46;;;;;;;21.02;14.95;;;;;;;1.13;73.68;101555.38;5088731;28;20020;-50
2021/12/12 01:09:20;;;;;;;21.63;16.05;;;;;;;1.13;73.66;101550.19;5071424;28;20027;-51
2021/12/12 01:11:48;;;;;;;21.58;15.80;;;;;;;1.13;73.80;101550.19;5090697;28;20551;-50
2021/12/12 01:14:17;;;;;;;19.75;14.75;;;;;;;1.12;73.79;101554.53;5089093;28;20039;-50
2021/12/12 01:16:52;;;;;;;20.30;14.48;;;;;;;1.12;73.69;101553.63;5090055;28;20020;-49
2021/12/12 01:19:26;;;;;;;19.50;14.15;;;;;;;1.12;73.59;101554.53;5088190;28;20028;-51
2021/12/12 01:21:55;;;;;;;21.38;15.50;;;;;;;1.09;73.61;101559.56;5095397;28;20023;-50
2021/12/12 01:24:28;;;;;;;20.83;14.68;;;;;;;1.11;73.63;101552.75;5096653;28;20144;-50
2021/12/12 01:26:56;;;;;;;19.73;14.35;;;;;;;1.11;73.75;101554.44;5096830;28;20099;-50
2021/12/12 01:29:21;;;;;;;17.73;14.48;;;;;;;1.09;73.81;101553.47;5095285;28;20024;-50
2021/12/12 01:31:48;;;;;;;22.05;15.02;;;;;;;1.10;73.66;101560.47;5096799;28;20174;-50
2021/12/12 01:34:22;;;;;;;19.92;14.48;;;;;;;1.10;73.58;101558.75;5092985;28;20028;-50
2021/12/12 01:37:34;;;;;;;17.85;13.93;;;;;;;1.10;73.72;101548.34;5078810;28;20035;-50
2021/12/12 01:40:02;;;;;;;19.15;14.48;;;;;;;1.09;73.53;101554.38;5093976;28;20043;-50
2021/12/12 01:42:34;;;;;;;22.00;15.47;;;;;;;1.09;73.64;101554.38;5093793;28;20028;-49
2021/12/12 01:45:20;;;;;;;19.48;14.70;;;;;;;1.10;73.63;101561.34;5093225;28;20070;-48
2021/12/12 01:47:48;;;;;;;19.70;14.45;;;;;;;1.09;73.56;101559.56;5078358;28;20031;-48
2021/12/12 01:50:41;;;;;;;19.08;14.35;;;;;;;1.09;73.96;101559.56;5077618;28;20036;-49
2021/12/12 01:53:12;;;;;;;17.60;13.48;;;;;;;1.08;73.73;101568.19;5094189;28;20034;-49
2021/12/12 01:55:41;;;;;;;17.10;12.90;;;;;;;1.07;73.64;101566.41;5093073;28;20032;-50
2021/12/12 01:58:10;;;;;;;21.05;14.25;;;;;;;1.08;73.80;101570.81;5095134;28;20515;-49
2021/12/12 02:00:40;;;;;;;19.80;14.40;;;;;;;1.06;73.71;101566.34;5093604;28;20032;-50
2021/12/12 02:03:08;;;;;;;21.08;14.43;;;;;;;1.06;73.71;101580.22;5096302;28;20024;-49
2021/12/12 02:05:36;;;;;;;20.90;14.60;;;;;;;1.07;73.65;101581.13;5094951;28;20027;-50
2021/12/12 02:08:08;;;;;;;17.75;13.73;;;;;;;1.07;73.64;101570.72;5077699;28;20020;-52
2021/12/12 02:10:39;;;;;;;19.38;14.25;;;;;;;1.06;73.51;101564.63;5077120;28;20028;-51
2021/12/12 02:13:07;;;;;;;22.58;14.60;;;;;;;1.07;73.39;101571.59;5095985;28;20475;-50
2021/12/12 02:15:35;;;;;;;18.15;13.48;;;;;;;1.05;73.33;101556.75;5077682;28;20032;-52
2021/12/12 02:18:11;;;;;;;20.02;13.80;;;;;;;1.07;73.83;101562.94;5078418;28;20031;-51
2021/12/12 02:20:47;;;;;;;17.77;14.27;;;;;;;1.05;73.75;101557.66;5093770;28;20080;-51
2021/12/12 02:23:27;;;;;;;17.58;14.05;;;;;;;1.05;73.90;101544.69;5079083;28;20028;-51
2021/12/12 02:37:05;;;;;;;18.65;13.45;;;;;;;1.04;73.88;101566.28;5092865;28;20038;-49
2021/12/12 02:39:31;;;;;;;20.45;13.27;;;;;;;1.03;73.70;101567.09;5092142;28;20032;-49
2021/12/12 02:41:59;;;;;;;14.93;12.38;;;;;;;1.05;73.66;101559.38;5092479;28;20035;-50
2021/12/12 02:44:29;;;;;;;17.75;13.85;;;;;;;1.04;73.52;101570.59;5092630;28;20085;-52
2021/12/12 02:46:59;;;;;;;18.40;13.27;;;;;;;1.03;73.75;101567.09;5059658;28;20437;-49
2021/12/12 02:50:13;;;;;;;17.35;12.88;;;;;;;1.02;73.81;101558.44;5090535;28;20055;-49
2021/12/12 02:52:16;;;;;;;19.02;12.80;;;;;;;1.02;73.74;101568.81;5081172;28;20498;-50
2021/12/12 02:54:42;;;;;;;19.10;12.70;;;;;;;1.01;73.50;101572.22;5091157;28;20559;-50
2021/12/12 02:57:08;;;;;;;19.17;13.25;;;;;;;1.01;73.62;101574.81;5090945;28;20058;-48
2021/12/12 02:59:34;;;;;;;17.98;12.20;;;;;;;1.01;73.69;101568.75;5089139;28;20089;-48
2021/12/12 03:02:06;;;;;;;18.15;13.20;;;;;;;1.02;73.90;101554.94;5092245;28;20028;-49
2021/12/12 03:04:32;;;;;;;18.67;12.82;;;;;;;1.02;73.94;101567.91;5091479;28;20140;-50
2021/12/12 03:06:58;;;;;;;16.10;11.77;;;;;;;1.02;73.76;101575.72;5092298;28;20088;-50
2021/12/12 03:09:29;;;;;;;17.65;12.23;;;;;;;1.01;73.45;101566.16;5092216;28;20101;-48
2021/12/12 03:11:59;;;;;;;15.02;12.43;;;;;;;1.01;73.82;101567.00;5072031;28;20031;-50
2021/12/12 03:14:32;;;;;;;17.13;11.52;;;;;;;1.01;73.60;101556.63;5089118;28;20510;-48
2021/12/12 03:17:00;;;;;;;15.73;11.30;;;;;;;1.00;73.69;101556.59;5071421;28;20024;-48
2021/12/12 03:19:25;;;;;;;14.63;11.40;;;;;;;1.00;73.69;101575.63;5091008;28;20027;-50
2021/12/12 03:21:50;;;;;;;13.65;10.40;;;;;;;1.00;73.66;101588.63;5091386;28;20132;-49
2021/12/12 03:24:21;;;;;;;15.27;10.90;;;;;;;1.00;74.03;101591.22;5091660;28;20024;-48
2021/12/12 03:26:50;;;;;;;12.52;10.48;;;;;;;1.00;73.69;101587.75;5092119;28;20467;-48
2021/12/12 03:29:15;;;;;;;15.32;11.30;;;;;;;0.97;73.79;101582.41;5088857;28;20036;-48
2021/12/12 03:31:45;;;;;;;15.63;11.52;;;;;;;0.99;73.59;101599.84;5073640;28;20034;-50
2021/12/12 03:34:14;;;;;;;16.27;10.75;;;;;;;0.99;73.57;101593.75;5087701;28;20054;-48
2021/12/12 03:36:41;;;;;;;15.02;11.40;;;;;;;0.99;73.74;101578.16;5091632;28;20095;-48
2021/12/12 03:39:14;;;;;;;14.65;11.15;;;;;;;0.98;73.56;101584.19;5091228;28;20036;-49
2021/12/12 03:41:40;;;;;;;15.27;10.75;;;;;;;0.98;73.75;101584.19;5091188;28;20114;-49
2021/12/12 03:44:11;;;;;;;14.93;11.35;;;;;;;0.98;73.65;101586.78;5089214;28;20381;-51
2021/12/12 03:46:37;;;;;;;13.68;9.82;;;;;;;0.98;73.53;101594.59;5089176;28;20514;-49
2021/12/12 03:49:04;;;;;;;13.70;10.07;;;;;;;0.98;73.85;101590.28;5084331;28;20047;-48
2021/12/12 03:51:32;;;;;;;14.15;10.75;;;;;;;0.98;73.83;101592.88;5089960;28;20476;-51
2021/12/12 03:53:57;;;;;;;14.27;10.63;;;;;;;0.98;73.63;101591.97;5073543;28;20143;-48
2021/12/12 03:56:25;;;;;;;14.18;10.48;;;;;;;0.99;73.85;101591.16;5091750;28;20523;-48
2021/12/12 03:58:51;;;;;;;12.80;9.93;;;;;;;0.97;73.65;101600.59;5089089;28;20016;-52
2021/12/12 04:01:24;;;;;;;13.95;9.65;;;;;;;0.97;73.53;101596.28;5080938;28;20492;-48
2021/12/12 04:03:53;;;;;;;15.23;10.65;;;;;;;0.96;73.93;101596.22;5090811;28;20391;-49
2021/12/12 04:06:24;;;;;;;14.70;11.27;;;;;;;0.97;73.47;101595.41;5089400;28;20111;-49
2021/12/12 04:08:51;;;;;;;14.00;10.77;;;;;;;0.97;74.02;101600.59;5072884;28;20476;-51
2021/12/12 04:11:23;;;;;;;13.18;10.07;;;;;;;0.97;73.81;101616.19;5089397;28;20031;-48
2021/12/12 04:13:53;;;;;;;15.82;9.98;;;;;;;0.97;74.06;101621.38;5089475;28;20036;-50
2021/12/12 04:16:20;;;;;;;12.57;9.65;;;;;;;0.95;73.78;101629.13;5070573;28;20043;-52
2021/12/12 04:18:46;;;;;;;11.98;9.07;;;;;;;0.97;73.76;101616.19;5090383;28;21173;-50
2021/12/12 04:21:12;;;;;;;13.82;10.00;;;;;;;0.96;73.52;101619.59;5090745;28;20484;-50
2021/12/12 04:23:40;;;;;;;13.48;8.75;;;;;;;0.96;73.47;101624.78;5091470;28;20019;-49
2021/12/12 04:26:24;;;;;;;13.50;10.45;;;;;;;0.96;73.85;101619.59;5090533;28;20024;-49
2021/12/12 04:28:59;;;;;;;11.82;9.57;;;;;;;0.95;73.90;101623.91;5088952;28;20019;-49
2021/12/12 04:31:24;;;;;;;13.23;9.88;;;;;;;0.95;73.71;101623.00;5072174;28;20050;-48
2021/12/12 04:33:52;;;;;;;12.43;9.60;;;;;;;0.94;73.71;101611.75;5090444;28;20476;-48
2021/12/12 04:36:17;;;;;;;13.30;9.45;;;;;;;0.94;73.84;101616.94;5088567;28;20044;-49
2021/12/12 04:38:42;;;;;;;14.65;9.50;;;;;;;0.94;73.55;101616.06;5090095;28;20108;-48
2021/12/12 04:41:07;;;;;;;11.77;9.35;;;;;;;0.93;73.87;101616.88;5088996;28;20089;-50
2021/12/12 04:43:33;;;;;;;11.98;9.00;;;;;;;0.94;73.95;101618.66;5089331;28;20058;-48
2021/12/12 04:46:10;;;;;;;12.57;9.40;;;;;;;0.93;73.50;101611.69;5090937;28;20073;-49
2021/12/12 04:52:00;;;;;;;13.10;9.38;;;;;;;0.93;73.92;101615.16;5045584;28;20449;-48
2021/12/12 04:54:33;;;;;;;13.63;9.88;;;;;;;0.92;73.72;101613.38;5069912;28;20024;-48
2021/12/12 04:57:02;;;;;;;12.35;9.23;;;;;;;0.92;73.57;101612.47;5066061;28;20119;-51
2021/12/12 04:59:47;;;;;;;12.10;9.00;;;;;;;0.92;73.68;101615.06;5089905;28;20420;-49
2021/12/12 05:02:20;;;;;;;11.23;8.82;;;;;;;0.91;74.11;101615.91;5071926;28;20491;-48
2021/12/12 05:04:57;;;;;;;11.35;8.40;;;;;;;0.91;73.70;101622.00;5071693;28;20027;-49
2021/12/12 05:07:57;;;;;;;13.93;9.27;;;;;;;0.91;73.67;101623.69;5087944;28;20030;-50
2021/12/12 05:10:47;;;;;;;14.07;8.80;;;;;;;0.91;73.92;101618.50;5086800;28;20032;-50
2021/12/12 05:13:25;;;;;;;11.13;9.13;;;;;;;0.89;74.03;101613.22;5089401;28;20016;-48
2021/12/12 05:15:53;;;;;;;12.57;8.90;;;;;;;0.89;73.93;101614.13;5089887;28;20472;-52
2021/12/12 05:18:29;;;;;;;12.75;9.23;;;;;;;0.89;74.00;101608.94;5086643;28;20499;-48
2021/12/12 05:21:23;;;;;;;11.85;8.73;;;;;;;0.91;73.92;101615.91;5071974;28;20024;-49
2021/12/12 05:23:51;;;;;;;10.90;8.77;;;;;;;0.88;73.66;101617.56;5088329;28;20437;-51
2021/12/12 05:26:19;;;;;;;12.02;8.73;;;;;;;0.90;74.04;101620.19;5072429;28;20016;-49
2021/12/12 05:29:14;;;;;;;12.77;9.15;;;;;;;0.89;74.03;101623.63;5087035;28;20022;-51
2021/12/12 05:31:45;;;;;;;12.55;8.90;;;;;;;0.91;73.59;101623.69;5067765;28;20044;-49
2021/12/12 05:34:11;;;;;;;11.63;8.57;;;;;;;0.88;73.64;101627.94;5069593;28;20024;-49
2021/12/12 05:36:36;;;;;;;15.32;9.15;;;;;;;0.88;73.70;101630.53;5071803;28;20381;-48
2021/12/12 05:39:04;;;;;;;11.98;9.32;;;;;;;0.87;73.55;101636.53;5089816;28;20023;-51
2021/12/12 05:41:29;;;;;;;11.88;8.25;;;;;;;0.88;73.98;101629.66;5090179;28;20036;-49
2021/12/12 05:43:57;;;;;;;11.02;8.40;;;;;;;0.86;73.86;101624.38;5072077;28;20016;-48
2021/12/12 05:46:23;;;;;;;12.73;9.18;;;;;;;0.88;73.65;101635.75;5089457;28;20441;-48
2021/12/12 05:48:50;;;;;;;12.20;9.05;;;;;;;0.87;73.91;101636.53;5089605;28;20035;-48
2021/12/12 05:51:19;;;;;;;12.80;8.43;;;;;;;0.88;73.75;101642.63;5088021;28;20124;-50
2021/12/12 05:53:44;;;;;;;11.02;8.23;;;;;;;0.88;73.95;101633.16;5054132;28;20052;-49
2021/12/12 05:56:10;;;;;;;11.25;8.93;;;;;;;0.87;73.62;101644.31;5089618;28;20520;-48
2021/12/12 05:58:37;;;;;;;15.57;10.05;;;;;;;0.88;74.00;101646.13;5089258;28;20028;-49
2021/12/12 06:01:07;;;;;;;12.75;9.43;;;;;;;0.87;73.72;101644.31;5087571;28;20483;-50
2021/12/12 06:03:37;;;;;;;11.90;8.32;;;;;;;0.87;73.80;101641.72;5070967;28;20028;-50
2021/12/12 06:06:05;;;;;;;11.38;8.43;;;;;;;0.87;73.74;101643.47;5088340;28;20020;-48
2021/12/12 06:08:31;;;;;;;15.80;8.65;;;;;;;0.86;73.57;101629.56;5070501;28;20854;-50
2021/12/12 06:10:57;;;;;;;12.27;8.57;;;;;;;0.85;73.55;101632.09;5073930;28;20042;-48
2021/12/12 06:13:26;;;;;;;12.27;8.77;;;;;;;0.87;73.56;101633.06;5074137;28;20411;-49
2021/12/12 06:15:54;;;;;;;14.88;9.85;;;;;;;0.86;73.62;101628.66;5091757;28;20031;-48
2021/12/12 06:18:21;;;;;;;12.77;9.20;;;;;;;0.86;73.84;101631.25;5090225;28;20031;-52
2021/12/12 06:20:52;;;;;;;13.15;9.43;;;;;;;0.87;73.87;101633.94;5092597;28;20141;-49
2021/12/12 06:23:17;;;;;;;;;;;;;;;0.86;74.01;101632.16;5092944;28;20020;-49
2021/12/12 06:25:44;;;;;;;12.82;9.23;;;;;;;0.84;73.61;101628.59;5091697;28;19919;-49
2021/12/12 06:28:31;;;;;;;12.85;9.30;;;;;;;0.84;73.40;101622.53;5073589;28;20055;-51
2021/12/12 06:30:57;;;;;;;13.05;9.60;;;;;;;0.84;74.13;101628.59;5091979;28;20071;-49
2021/12/12 06:33:22;;;;;;;12.98;9.60;;;;;;;0.84;73.91;101620.81;5091698;28;20459;-50
2021/12/12 06:35:48;;;;;;;14.02;9.85;;;;;;;0.83;73.98;101619.03;5091683;28;20433;-50
2021/12/12 06:38:15;;;;;;;12.48;8.60;;;;;;;0.83;73.76;101621.63;5092196;28;20096;-50
2021/12/12 06:40:43;;;;;;;12.82;9.10;;;;;;;0.84;74.05;101618.22;5091097;28;20024;-49
2021/12/12 06:43:11;;;;;;;12.68;8.68;;;;;;;0.84;73.77;101618.22;5090952;28;20036;-49
2021/12/12 06:52:20;;;;;;;;;;;;;;;0.83;74.14;101629.41;5090981;28;20085;-49
2021/12/12 06:54:46;;;;;;;14.20;9.50;;;;;;;0.81;73.84;101631.06;5074449;28;19915;-49
2021/12/12 06:57:14;;;;;;;13.88;10.43;;;;;;;0.82;73.67;101635.44;5073864;28;20032;-49
2021/12/12 06:59:41;;;;;;;12.95;8.98;;;;;;;0.82;73.85;101643.25;5092395;28;20067;-47
2021/12/12 07:02:07;;;;;;;11.50;8.60;;;;;;;0.83;74.09;101650.19;5091022;28;20606;-49
2021/12/12 07:04:33;;;;;;;12.15;8.10;;;;;;;0.83;73.91;101650.19;5089564;28;20119;-51
2021/12/12 07:07:01;;;;;;;12.68;8.85;;;;;;;0.83;74.14;101638.94;5073334;28;20683;-48
2021/12/12 07:09:30;;;;;;;13.63;9.77;;;;;;;0.83;74.08;101633.75;5073692;28;20039;-48
2021/12/12 07:12:00;;;;;;;15.07;8.93;;;;;;;0.83;73.97;101634.63;5091972;28;20043;-48
2021/12/12 07:14:26;;;;;;;12.00;8.88;;;;;;;0.84;73.57;101630.31;5072830;28;20020;-48
2021/12/12 07:16:54;;;;;;;12.82;9.30;;;;;;;0.84;74.11;101627.72;5073854;28;20093;-49
2021/12/12 07:19:19;;;;;;;12.60;9.45;;;;;;;0.83;73.72;101632.03;5069929;28;20505;-49
2021/12/12 07:21:45;;;;;;;13.43;9.63;;;;;;;0.84;73.96;101635.50;5054050;28;20028;-49
2021/12/12 07:24:11;;;;;;;10.63;8.32;;;;;;;0.82;73.68;101643.25;5088625;28;20085;-49
2021/12/12 07:26:37;;;;;;;14.07;9.80;;;;;;;0.82;73.61;101634.53;5073469;28;20012;-50
2021/12/12 07:29:04;;;;;;;12.85;9.05;;;;;;;0.83;74.15;101639.81;5090881;28;20055;-51
2021/12/12 07:31:32;;;;;;;12.20;8.73;;;;;;;0.82;73.70;101638.03;5072802;28;20032;-50
2021/12/12 07:34:00;;;;;;;11.85;8.60;;;;;;;0.83;73.63;101639.81;5090425;28;20028;-48
2021/12/12 07:36:27;;;;;;;14.52;9.63;;;;;;;0.82;73.97;101643.25;5091730;28;20116;-50
2021/12/12 07:38:55;;;;;;;13.07;8.80;;;;;;;0.82;73.71;101638.03;5091818;28;20025;-47
2021/12/12 07:41:24;;;;;;;13.27;9.25;;;;;;;0.82;74.15;101637.13;5089680;28;20035;-49
2021/12/12 07:43:49;;;;;;;11.43;8.68;;;;;;;0.83;74.00;101636.34;5088032;28;20427;-49
2021/12/12 07:46:15;;;;;;;11.57;8.40;;;;;;;0.83;73.87;101636.34;5088854;28;20024;-49
2021/12/12 07:48:43;;;;;;;12.68;8.88;;;;;;;0.83;74.07;101642.41;5070280;28;20039;-52
2021/12/12 07:51:08;;;;;;;12.27;8.93;;;;;;;0.82;74.15;101643.25;5088783;28;20093;-49
2021/12/12 07:53:34;;;;;;;15.70;9.60;;;;;;;0.81;73.89;101646.66;5069634;28;20028;-51
2021/12/12 07:55:59;;;;;;;12.30;8.20;;;;;;;0.83;74.19;101659.72;5067619;28;20030;-48
2021/12/12 07:58:26;;;;;;;13.27;9.35;;;;;;;0.82;73.82;101651.03;5070336;28;20024;-49
2021/12/12 08:00:53;;;;;;;11.25;8.88;;;;;;;0.81;74.19;101641.47;5087783;28;20616;-49
2021/12/12 08:03:24;;;;;;;14.02;8.90;;;;;;;0.80;73.99;101644.84;5087108;28;20018;-50
2021/12/12 08:05:52;;;;;;;11.50;8.48;;;;;;;0.81;73.69;101631.06;5087331;28;20353;-49
2021/12/12 08:08:18;;;;;;;11.75;8.73;;;;;;;0.82;73.96;101631.94;5085565;28;20458;-50
2021/12/12 08:10:46;;;;;;;14.10;8.93;;;;;;;0.81;74.03;101637.97;5090680;28;20032;-48
2021/12/12 08:13:13;;;;;;;14.48;9.13;;;;;;;0.81;73.97;101635.38;5089217;28;20107;-49
2021/12/12 08:15:41;;;;;;;16.75;9.50;;;;;;;0.81;73.95;101644.06;5086229;28;20093;-49
2021/12/12 08:18:08;;;;;;;13.48;9.05;;;;;;;0.80;73.81;101634.47;5089280;28;20503;-48
2021/12/12 08:20:34;;;;;;;13.10;9.52;;;;;;;0.80;74.32;101631.00;5072416;28;20036;-47
2021/12/12 08:22:59;;;;;;;14.27;9.63;;;;;;;0.81;73.82;101627.56;5071345;28;20035;-49
2021/12/12 08:25:26;;;;;;;13.60;9.25;;;;;;;0.80;74.36;101629.28;5068048;28;20053;-50
2021/12/12 08:27:54;;;;;;;15.52;9.50;;;;;;;0.81;73.96;101630.19;5089258;28;20032;-49
2021/12/12 08:30:23;;;;;;;14.57;9.93;;;;;;;0.82;74.03;101637.13;5067478;28;20031;-49
2021/12/12 08:32:50;;;;;;;15.27;10.25;;;;;;;0.82;74.27;101635.44;5090570;28;20020;-50
2021/12/12 08:35:18;;;;;;;15.27;10.68;;;;;;;0.81;74.14;101623.28;5090564;28;20422;-49
2021/12/12 08:37:46;;;;;;;14.18;9.77;;;;;;;0.81;74.38;101615.50;5072088;28;20031;-49
2021/12/12 08:40:18;;;;;;;14.00;9.45;;;;;;;0.80;74.04;101618.00;5087662;28;20024;-49
2021/12/12 08:42:44;;;;;;;12.68;9.27;;;;;;;0.80;73.92;101621.47;5088552;28;20096;-50
2021/12/12 08:45:12;;;;;;;13.52;10.57;;;;;;;0.81;74.48;101620.69;5070845;28;20488;-48
2021/12/12 08:47:39;;;;;;;14.23;9.27;;;;;;;0.78;73.99;101615.34;5089954;28;20053;-48
2021/12/12 08:50:07;;;;;;;12.98;8.35;;;;;;;0.81;74.36;101620.69;5053586;28;20445;-49
2021/12/12 08:52:37;;;;;;;15.05;10.13;;;;;;;0.79;74.43;101627.50;5071629;28;20036;-49
2021/12/12 08:55:07;;;;;;;13.27;9.65;;;;;;;0.81;74.22;101631.06;5085781;28;20020;-50
2021/12/12 08:57:44;;;;;;;13.83;8.83;;;;;;;0.80;74.04;101628.41;5088123;28;20050;-49
2021/12/12 09:00:15;;;;;;;13.32;9.05;;;;;;;0.81;73.89;101630.19;5068985;28;20031;-49
2021/12/12 09:02:41;;;;;;;12.43;8.77;;;;;;;0.79;74.05;101622.31;5086368;28;20387;-53
2021/12/12 09:05:17;;;;;;;15.68;10.18;;;;;;;0.80;74.05;101629.28;5067898;28;20024;-49
2021/12/12 09:07:45;;;;;;;12.85;8.85;;;;;;;0.81;74.32;101622.38;5084057;28;21811;-49
2021/12/12 09:10:30;;;;;;;13.88;8.85;;;;;;;0.81;74.30;101620.69;5067623;28;20059;-49
2021/12/12 09:13:05;;;;;;;16.90;10.80;;;;;;;0.81;74.41;101620.69;5085749;28;20471;-48
2021/12/12 09:15:49;;;;;;;15.05;9.30;;;;;;;0.80;74.34;101629.28;5089341;28;20023;-50
2021/12/12 09:18:40;;;;;;;12.15;9.13;;;;;;;0.80;74.63;101624.06;5089805;28;20035;-49
2021/12/12 09:21:11;;;;;;;13.80;9.07;;;;;;;0.82;74.47;101617.25;5081174;28;20032;-49
2021/12/12 09:23:45;;;;;;;14.70;8.88;;;;;;;0.81;74.47;101614.59;5072056;28;20105;-49
2021/12/12 09:26:18;;;;;;;15.07;9.95;;;;;;;0.81;74.19;101619.78;5071323;28;20028;-48
2021/12/12 09:29:06;;;;;;;14.68;9.80;;;;;;;0.81;74.29;101618.09;5088575;28;20395;-49
2021/12/12 09:31:38;;;;;;;13.43;9.82;;;;;;;0.81;74.45;101623.28;5089764;28;20472;-47
2021/12/12 09:34:39;;;;;;;13.75;8.38;;;;;;;0.80;74.37;101618.88;5070464;28;20031;-52
2021/12/12 09:37:12;;;;;;;13.53;8.70;;;;;;;0.79;74.32;101619.72;5055100;28;20048;-48
2021/12/12 09:39:42;;;;;;;11.95;8.68;;;;;;;0.79;74.30;101611.91;5090077;28;20108;-48
2021/12/12 09:42:33;;;;;;;11.68;8.18;;;;;;;0.80;74.32;101613.69;5072471;28;20059;-49
2021/12/12 09:45:21;;;;;;;12.32;8.70;;;;;;;0.80;74.60;101608.50;5072056;28;20033;-48
2021/12/12 09:51:14;;;;;;;14.88;9.32;;;;;;;0.80;74.56;101603.31;5092446;28;20043;-49
2021/12/12 09:51:37;;;;;;;14.00;8.85;;;;;;;0.78;74.55;101604.94;5078644;28;20035;-49
2021/12/12 09:54:24;;;;;;;13.35;9.07;;;;;;;0.79;74.68;101601.53;5091711;28;20024;-49
2021/12/12 09:57:48;;;;;;;13.57;9.05;;;;;;;0.80;74.62;101592.91;5093286;28;20044;-49
2021/12/12 10:00:19;;;;;;;11.65;8.35;;;;;;;0.79;74.51;101598.94;5049321;28;20588;-49
2021/12/12 10:03:00;;;;;;;;;;;;;;;0.80;74.79;101603.31;5085618;28;20028;-48
2021/12/12 10:05:36;;;;;;;13.43;8.52;;;;;;;0.77;74.86;101598.84;5093759;28;19911;-49
2021/12/12 10:08:10;;;;;;;14.75;8.85;;;;;;;0.77;74.53;101587.59;5089688;28;20051;-48
2021/12/12 10:10:56;;;;;;;11.20;8.10;;;;;;;0.79;74.57;101596.34;5090950;28;20116;-49
2021/12/12 10:13:39;;;;;;;12.40;7.90;;;;;;;0.78;74.46;101589.38;5091904;28;20480;-49
2021/12/12 10:16:13;;;;;;;12.25;8.27;;;;;;;0.78;74.75;101586.78;5090820;28;20028;-48
2021/12/12 10:19:03;;;;;;;12.88;8.93;;;;;;;0.80;74.82;101573.88;5073695;28;20119;-48
2021/12/12 10:21:53;;;;;;;13.57;8.82;;;;;;;0.79;74.40;101577.25;5091765;28;20031;-48
2021/12/12 10:24:30;;;;;;;12.95;8.65;;;;;;;0.80;74.86;101571.25;5085092;28;20073;-48
2021/12/12 10:27:03;;;;;;;13.73;8.70;;;;;;;0.79;74.73;101578.16;5074970;28;20024;-48
2021/12/12 10:29:39;;;;;;;13.48;8.40;;;;;;;0.79;74.91;101585.94;5072758;28;20395;-48
2021/12/12 10:32:15;;;;;;;12.73;8.75;;;;;;;0.79;74.76;101579.84;5074902;28;20035;-48
2021/12/12 10:34:51;;;;;;;12.63;8.35;;;;;;;0.79;75.01;101570.38;5088067;28;20024;-47
2021/12/12 10:37:27;;;;;;;9.82;7.38;;;;;;;0.80;74.80;101569.53;5088873;28;20036;-47
2021/12/12 10:40:45;;;;;;;10.88;8.23;;;;;;;0.81;74.38;101573.94;5072074;28;20088;-47
2021/12/12 10:43:12;;;;;;;8.32;7.45;;;;;;;0.81;74.47;101578.22;5075026;28;20509;-50
2021/12/12 10:45:42;;;;;;;12.73;7.75;;;;;;;0.80;74.43;101569.53;5091894;28;20066;-50
2021/12/12 10:48:12;;;;;;;10.40;7.55;;;;;;;0.80;74.57;101574.72;5056659;28;20427;-49
2021/12/12 10:50:43;;;;;;;11.02;7.43;;;;;;;0.80;74.67;101569.53;5072092;28;20081;-50
2021/12/12 10:53:25;;;;;;;10.93;7.25;;;;;;;0.81;74.42;101573.94;5093204;28;20034;-49
2021/12/12 10:55:58;;;;;;;9.30;7.03;;;;;;;0.81;74.50;101573.03;5088763;28;20024;-49
2021/12/12 10:58:34;;;;;;;10.13;6.97;;;;;;;0.80;74.59;101571.25;5091057;28;20028;-49
2021/12/12 11:01:10;;;;;;;9.63;7.03;;;;;;;0.80;74.45;101566.94;5048934;28;20498;-50
2021/12/12 11:03:39;;;;;;;10.30;6.95;;;;;;;0.81;74.36;101563.53;5073395;28;20035;-49
2021/12/12 11:06:26;;;;;;;9.90;6.30;;;;;;;0.81;74.66;101565.25;5073255;28;20066;-49
2021/12/12 11:09:00;;;;;;;9.60;7.07;;;;;;;0.80;74.66;101566.94;5089453;28;20028;-50
2021/12/12 11:12:01;;;;;;;9.65;7.05;;;;;;;0.80;74.36;101556.56;5070640;28;20048;-51
2021/12/12 11:14:30;;;;;;;10.85;6.55;;;;;;;0.80;74.85;101561.75;5023678;28;20032;-50
2021/12/12 11:16:57;;;;;;;12.70;8.10;;;;;;;0.81;74.95;101562.66;5074154;28;20036;-50
2021/12/12 11:20:05;;;;;;;10.10;7.35;;;;;;;0.81;74.62;101553.16;5073820;28;20479;-49
2021/12/12 11:22:34;;;;;;;8.95;6.78;;;;;;;0.81;74.58;101547.97;5091668;28;20043;-50
2021/12/12 11:25:08;;;;;;;9.88;6.68;;;;;;;0.81;74.72;101540.16;5091128;28;20059;-50
2021/12/12 11:27:40;;;;;;;8.93;6.57;;;;;;;0.81;74.80;101542.78;5093887;28;20504;-50
2021/12/12 11:30:10;;;;;;;9.73;6.65;;;;;;;0.80;74.75;101543.56;5075917;28;20027;-50
2021/12/12 11:32:36;;;;;;;10.02;6.45;;;;;;;0.79;74.68;101534.00;5075586;28;20047;-50
2021/12/12 11:35:05;;;;;;;8.63;6.45;;;;;;;0.79;74.91;101539.19;5074117;28;20039;-50
2021/12/12 11:37:46;;;;;;;8.63;7.05;;;;;;;0.81;74.56;101537.56;5093560;28;20145;-50
2021/12/12 11:40:26;;;;;;;11.15;6.72;;;;;;;0.82;74.56;101533.25;5092569;28;20455;-50
2021/12/12 11:43:03;;;;;;;10.60;6.93;;;;;;;0.81;74.72;101527.19;5092019;28;20055;-50
2021/12/12 11:45:48;;;;;;;8.85;6.13;;;;;;;0.82;74.48;101531.56;5071805;28;20308;-49
2021/12/12 11:48:22;;;;;;;9.77;6.85;;;;;;;0.80;74.58;101509.81;5070428;28;20024;-50
2021/12/12 11:50:58;;;;;;;9.15;6.28;;;;;;;0.80;74.81;101511.53;5092079;28;20028;-49
2021/12/12 11:53:41;;;;;;;9.82;6.85;;;;;;;0.81;74.74;101516.78;5073568;28;20391;-50
2021/12/12 11:56:14;;;;;;;9.18;6.43;;;;;;;0.81;74.64;101511.59;5086250;28;20032;-50
2021/12/12 11:59:05;;;;;;;8.90;6.55;;;;;;;0.82;74.64;101508.19;5088017;28;20066;-49
2021/12/12 12:01:51;;;;;;;9.07;6.50;;;;;;;0.82;74.56;101505.56;5089022;28;20028;-50
2021/12/12 12:04:47;;;;;;;7.22;5.78;;;;;;;0.82;75.34;101497.78;5089985;28;20042;-48
2021/12/12 12:07:36;;;;;;;8.43;6.47;;;;;;;0.82;75.05;101496.88;5089129;28;20012;-47